James Davison — WDF9427 — position and weather

sailwx.info

Track history (hours):
 
Tides and Currents Weather Stations Pressure Air Temp Water Temp Dewpoint Dewpoint Depression Visibility Wind Speed Wind Dir Waves Ship Positions

James Davison

Owner: Genesis Marine, LLC, Houston, TX. More information available from US FCC via Universal Licensing System and Coast Guard Vessel Documentation Center.

Last reported at 2017-Sep-21 00:07 UTC. Time now 2017-Sep-23 05:56 UTC.
Position N 29°57' W 090°23'.

Length 26 m; draft 3 m.

Type: Other ship. MMSI: 367505050.

Date/timePositionNaut miles runAvg speedWind from/ knotsBaromVisibWave heightAir tempDewpointWater temp
2017-Sep-21 00:07N 29°57' W 090°23'0 0.0
2017-Sep-20 23:55N 29°57' W 090°23'  
2017-Sep-13 14:13N 29°34' W 090°23'1 3.7
2017-Sep-13 13:59N 29°33' W 090°24'2 3.0
2017-Sep-13 13:27N 29°33' W 090°26'2 5.4
2017-Sep-13 13:00N 29°34' W 090°29'3 5.5
2017-Sep-13 12:30N 29°34' W 090°32'3 5.1
2017-Sep-13 12:00N 29°34' W 090°35'2 3.7
2017-Sep-13 11:30N 29°35' W 090°37'3 5.2
2017-Sep-13 11:00N 29°36' W 090°39'2 4.2
2017-Sep-13 10:30N 29°37' W 090°41'1 2.9
2017-Sep-13 10:01N 29°36' W 090°43'2 3.7
2017-Sep-13 09:31N 29°34' W 090°44'2 3.8
2017-Sep-13 09:00N 29°33' W 090°45'0 0.0
2017-Sep-13 08:31N 29°33' W 090°45'0 0.1
2017-Sep-13 08:00N 29°33' W 090°45'0 0.1
2017-Sep-13 07:30N 29°33' W 090°45'0 0.0
2017-Sep-13 07:00N 29°33' W 090°45'1 1.1
2017-Sep-13 06:31N 29°32' W 090°46'3 5.4
2017-Sep-13 06:00N 29°32' W 090°49'3 5.8
2017-Sep-13 05:30N 29°32' W 090°52'3 5.7
2017-Sep-13 04:58N 29°34' W 090°55'3 5.4
2017-Sep-13 04:29N 29°35' W 090°58'58 3.9
2017-Sep-12 13:33N 29°49' W 092°02'0 4.8
2017-Sep-12 13:29N 29°49' W 092°03'2 5.0
2017-Sep-12 12:59N 29°48' W 092°05'3 5.1
2017-Sep-12 12:29N 29°47' W 092°08'4 5.2
2017-Sep-12 11:43N 29°47' W 092°12'1 3.3
2017-Sep-12 11:30N 29°48' W 092°13'1 2.7
2017-Sep-12 10:59N 29°48' W 092°15'1 1.6
2017-Sep-12 10:30N 29°48' W 092°16'2 3.1
2017-Sep-12 09:57N 29°49' W 092°17'43 4.6
2017-Sep-12 00:36N 29°56' W 093°07'1 4.9
2017-Sep-12 00:22N 29°56' W 093°08'1 3.1
2017-Sep-11 23:58N 29°56' W 093°09'1 1.4
2017-Sep-11 23:31N 29°57' W 093°10'2 4.0
2017-Sep-11 23:00N 29°58' W 093°11'2 4.7
2017-Sep-11 22:31N 29°60' W 093°13'2 3.9
2017-Sep-11 22:00N 30°02' W 093°14'2 4.0
2017-Sep-11 21:30N 30°03' W 093°16'1 1.2
2017-Sep-11 21:01N 30°04' W 093°16'0 0.0
2017-Sep-11 20:30N 30°04' W 093°16'0 0.0
2017-Sep-11 20:01N 30°04' W 093°16'0 0.0
2017-Sep-11 19:31N 30°04' W 093°16'0 0.0
2017-Sep-11 19:01N 30°04' W 093°16'0 0.0
2017-Sep-11 18:31N 30°04' W 093°16'0 0.0
2017-Sep-11 18:01N 30°04' W 093°16'0 0.0
2017-Sep-11 17:31N 30°04' W 093°16'0 0.0
2017-Sep-11 17:01N 30°04' W 093°16'0 0.2
2017-Sep-11 16:30N 30°04' W 093°16'2 4.2
2017-Sep-11 16:01N 30°05' W 093°18'2 3.4
2017-Sep-11 15:31N 30°05' W 093°20'2 3.8
2017-Sep-11 14:52N 30°04' W 093°21'2 4.7
2017-Sep-11 14:30N 30°04' W 093°23'3 5.9
2017-Sep-11 14:01N 30°04' W 093°27'3 5.9
2017-Sep-11 13:28N 30°04' W 093°30'  
Track history (hours):
 
Tides and Currents Weather Stations Pressure Air Temp Water Temp Dewpoint Dewpoint Depression Visibility Wind Speed Wind Dir Waves Ship Positions

James Davison

Owner: Genesis Marine, LLC, Houston, TX. More information available from US FCC via Universal Licensing System and Coast Guard Vessel Documentation Center.

Last reported at 2017-Sep-21 00:07 UTC. Time now 2017-Sep-23 05:56 UTC.
Position N 29°57' W 090°23'.

Length 26 m; draft 3 m.

Type: Other ship. MMSI: 367505050.

Date/timePositionNaut miles runAvg speedWind from/ knotsBaromVisibWave heightAir tempDewpointWater temp
2017-Sep-21 00:07N 29°57' W 090°23'0 0.0
2017-Sep-20 23:55N 29°57' W 090°23'  
2017-Sep-13 14:13N 29°34' W 090°23'1 3.7
2017-Sep-13 13:59N 29°33' W 090°24'2 3.0
2017-Sep-13 13:27N 29°33' W 090°26'2 5.4
2017-Sep-13 13:00N 29°34' W 090°29'3 5.5
2017-Sep-13 12:30N 29°34' W 090°32'3 5.1
2017-Sep-13 12:00N 29°34' W 090°35'2 3.7
2017-Sep-13 11:30N 29°35' W 090°37'3 5.2
2017-Sep-13 11:00N 29°36' W 090°39'2 4.2
2017-Sep-13 10:30N 29°37' W 090°41'1 2.9
2017-Sep-13 10:01N 29°36' W 090°43'2 3.7
2017-Sep-13 09:31N 29°34' W 090°44'2 3.8
2017-Sep-13 09:00N 29°33' W 090°45'0 0.0
2017-Sep-13 08:31N 29°33' W 090°45'0 0.1
2017-Sep-13 08:00N 29°33' W 090°45'0 0.1
2017-Sep-13 07:30N 29°33' W 090°45'0 0.0
2017-Sep-13 07:00N 29°33' W 090°45'1 1.1
2017-Sep-13 06:31N 29°32' W 090°46'3 5.4
2017-Sep-13 06:00N 29°32' W 090°49'3 5.8
2017-Sep-13 05:30N 29°32' W 090°52'3 5.7
2017-Sep-13 04:58N 29°34' W 090°55'3 5.4
2017-Sep-13 04:29N 29°35' W 090°58'58 3.9
2017-Sep-12 13:33N 29°49' W 092°02'0 4.8
2017-Sep-12 13:29N 29°49' W 092°03'2 5.0
2017-Sep-12 12:59N 29°48' W 092°05'3 5.1
2017-Sep-12 12:29N 29°47' W 092°08'4 5.2
2017-Sep-12 11:43N 29°47' W 092°12'1 3.3
2017-Sep-12 11:30N 29°48' W 092°13'1 2.7
2017-Sep-12 10:59N 29°48' W 092°15'1 1.6
2017-Sep-12 10:30N 29°48' W 092°16'2 3.1
2017-Sep-12 09:57N 29°49' W 092°17'43 4.6
2017-Sep-12 00:36N 29°56' W 093°07'1 4.9
2017-Sep-12 00:22N 29°56' W 093°08'1 3.1
2017-Sep-11 23:58N 29°56' W 093°09'1 1.4
2017-Sep-11 23:31N 29°57' W 093°10'2 4.0
2017-Sep-11 23:00N 29°58' W 093°11'2 4.7
2017-Sep-11 22:31N 29°60' W 093°13'2 3.9
2017-Sep-11 22:00N 30°02' W 093°14'2 4.0
2017-Sep-11 21:30N 30°03' W 093°16'1 1.2
2017-Sep-11 21:01N 30°04' W 093°16'0 0.0
2017-Sep-11 20:30N 30°04' W 093°16'0 0.0
2017-Sep-11 20:01N 30°04' W 093°16'0 0.0
2017-Sep-11 19:31N 30°04' W 093°16'0 0.0
2017-Sep-11 19:01N 30°04' W 093°16'0 0.0
2017-Sep-11 18:31N 30°04' W 093°16'0 0.0
2017-Sep-11 18:01N 30°04' W 093°16'0 0.0
2017-Sep-11 17:31N 30°04' W 093°16'0 0.0
2017-Sep-11 17:01N 30°04' W 093°16'0 0.2
2017-Sep-11 16:30N 30°04' W 093°16'2 4.2
2017-Sep-11 16:01N 30°05' W 093°18'2 3.4
2017-Sep-11 15:31N 30°05' W 093°20'2 3.8
2017-Sep-11 14:52N 30°04' W 093°21'2 4.7
2017-Sep-11 14:30N 30°04' W 093°23'3 5.9
2017-Sep-11 14:01N 30°04' W 093°27'3 5.9
2017-Sep-11 13:28N 30°04' W 093°30'  

Dump ship's entire track history